Time;durP1;ratioP1;P1;durP2;ratioP2;P2;SDS_P1;SDS_P2;PMS_P1;PMS_P2;Temp;Humidity;BMP_temperature;BMP_pressure;BME280_temperature;BME280_humidity;BME280_pressure;Samples;Min_cycle;Max_cycle;Signal;HPM_P1;HPM_P2
2022/07/11 00:00:33;;;;;;;;;4.33;4.33;;;;;22.25;50.10;101520.41;4914116;28;45522;-85
2022/07/11 00:02:58;;;;;;;;;3.67;3.67;;;;;22.19;49.61;101501.53;4930841;28;45483;-84
2022/07/11 00:05:24;;;;;;;;;4.33;4.33;;;;;22.23;49.16;101514.09;4932035;28;44998;-84
2022/07/11 00:08:42;;;;;;;;;4.33;4.00;;;;;22.23;50.17;101514.09;4931175;28;44757;-86
2022/07/11 00:11:08;;;;;;;;;4.00;4.00;;;;;22.20;50.22;101513.25;4932920;28;45342;-84
2022/07/11 00:13:33;;;;;;;;;2.67;2.67;;;;;22.12;50.37;101505.31;4934646;28;45377;-84
2022/07/11 00:15:59;;;;;;;;;5.67;4.00;;;;;22.15;50.16;101502.53;4936154;28;45461;-84
2022/07/11 00:18:25;;;;;;;;;4.33;4.00;;;;;22.14;49.83;101508.88;4916686;28;45558;-84
2022/07/11 00:20:50;;;;;;;;;4.00;4.00;;;;;22.14;49.42;101504.34;4934972;28;45402;-83
2022/07/11 00:23:16;;;;;;;;;5.67;5.00;;;;;22.11;50.04;101501.69;4915545;28;47029;-83
2022/07/11 00:25:41;;;;;;;;;6.00;5.00;;;;;22.07;49.38;101497.28;4915912;28;45422;-83
2022/07/11 00:28:07;;;;;;;;;4.00;4.00;;;;;22.10;50.18;101507.19;4932923;28;45333;-83
2022/07/11 00:30:33;;;;;;;;;3.67;3.00;;;;;22.06;50.09;101510.88;4916340;28;45286;-83
2022/07/11 00:32:58;;;;;;;;;3.00;3.00;;;;;22.04;50.56;101505.47;4935898;28;45329;-84
2022/07/11 00:35:23;;;;;;;;;3.00;3.00;;;;;22.00;50.19;101494.75;4918605;28;44823;-84
2022/07/11 00:37:49;;;;;;;;;3.00;3.00;;;;;21.93;50.30;101488.56;4917960;28;45933;-83
2022/07/11 00:40:14;;;;;;;;;4.00;3.00;;;;;21.95;49.88;101492.13;4918788;28;45324;-83
2022/07/11 00:42:40;;;;;;;;;3.33;3.33;;;;;21.91;51.38;101484.97;4919716;28;47069;-83
2022/07/11 00:45:06;;;;;;;;;3.00;3.00;;;;;21.91;51.21;101493.09;4919083;28;45391;-84
2022/07/11 00:47:31;;;;;;;;;4.33;4.00;;;;;21.87;50.77;101485.97;4919193;28;45514;-85
2022/07/11 00:49:57;;;;;;;;;3.00;3.00;;;;;21.82;50.62;101477.97;4918644;28;44896;-83
2022/07/11 00:52:23;;;;;;;;;4.00;4.00;;;;;21.85;51.35;101482.41;4917432;28;48120;-84
2022/07/11 00:54:53;;;;;;;;;4.00;4.00;;;;;21.84;50.46;101486.06;4936792;28;44902;-84
2022/07/11 00:57:19;;;;;;;;;4.00;3.67;;;;;21.77;50.98;101471.72;4919002;28;45531;-84
2022/07/11 00:59:45;;;;;;;;;3.33;3.33;;;;;21.79;51.21;101480.72;4918466;28;45376;-84
2022/07/11 01:02:11;;;;;;;;;3.00;3.00;;;;;21.77;51.20;101472.66;4918141;28;47034;-84
2022/07/11 01:04:37;;;;;;;;;3.33;3.33;;;;;21.72;50.84;101471.84;4934791;28;45318;-84
2022/07/11 01:07:02;;;;;;;;;2.67;2.67;;;;;21.75;51.65;101484.41;4918250;28;45358;-84
2022/07/11 01:09:28;;;;;;;;;1.33;1.00;;;;;21.72;51.74;101487.19;4917563;28;45496;-83
2022/07/11 01:11:55;;;;;;;;;2.67;2.67;;;;;21.68;51.04;101483.66;4935259;28;46393;-83
2022/07/11 01:14:20;;;;;;;;;3.00;3.00;;;;;21.67;51.74;101475.56;4902562;28;45451;-84
2022/07/11 01:16:46;;;;;;;;;4.67;4.67;;;;;21.63;51.14;101468.41;4935656;28;44800;-83
2022/07/11 01:19:11;;;;;;;;;3.00;3.00;;;;;21.63;51.03;101479.25;4933107;28;45791;-83
2022/07/11 01:21:41;;;;;;;;;2.00;2.00;;;;;21.63;51.59;101480.13;4916044;28;46958;-83
2022/07/11 01:24:08;;;;;;;;;2.33;2.33;;;;;21.62;51.10;101478.38;4915755;28;45473;-84
2022/07/11 01:26:34;;;;;;;;;3.67;3.67;;;;;21.61;51.85;101475.69;4916003;28;44775;-83
2022/07/11 01:29:12;;;;;;;;;2.00;2.00;;;;;21.58;52.00;101473.94;4933904;28;45396;-83
2022/07/11 01:31:44;;;;;;;;;3.67;3.00;;;;;21.57;51.68;101480.25;4933785;28;45542;-82
2022/07/11 01:34:10;;;;;;;;;2.33;2.33;;;;;21.43;51.99;101460.69;4915861;28;45431;-83
2022/07/11 01:36:37;;;;;;;;;3.33;3.33;;;;;21.48;52.66;101470.50;4916713;28;45469;-84
2022/07/11 01:39:03;;;;;;;;;3.67;3.00;;;;;21.49;51.50;101474.09;4935430;28;45786;-82
2022/07/11 01:41:28;;;;;;;;;2.67;2.67;;;;;21.48;51.79;101480.44;4919872;28;45441;-84
2022/07/11 01:43:54;;;;;;;;;3.00;3.00;;;;;21.42;52.03;101469.72;4934111;28;45461;-83
2022/07/11 01:46:21;;;;;;;;;4.33;4.33;;;;;21.38;52.42;101467.06;4933859;28;45189;-84
2022/07/11 01:48:47;;;;;;;;;2.67;2.67;;;;;21.37;52.41;101467.09;4933854;28;45525;-84
2022/07/11 01:51:12;;;;;;;;;5.00;3.00;;;;;21.36;52.84;101468.00;4915027;28;46563;-83
2022/07/11 01:53:38;;;;;;;;;3.00;3.00;;;;;21.32;52.56;101471.69;4932238;28;45472;-84
2022/07/11 01:56:03;;;;;;;;;3.00;3.00;;;;;21.26;53.31;101464.59;4934048;28;45429;-84
2022/07/11 01:58:31;;;;;;;;;3.00;3.00;;;;;21.21;52.34;101460.16;4935551;28;45455;-84
2022/07/11 02:00:58;;;;;;;;;4.33;3.67;;;;;21.25;51.98;101467.31;4915013;28;47066;-84
2022/07/11 02:03:23;;;;;;;;;4.00;4.00;;;;;21.29;52.75;101475.38;4915163;28;45591;-84
2022/07/11 02:05:49;;;;;;;;;3.33;3.33;;;;;21.31;52.38;101478.94;4933057;28;45358;-83
2022/07/11 02:08:15;;;;;;;;;4.67;3.00;;;;;21.28;53.08;101480.78;4915034;28;45439;-83
2022/07/11 02:10:45;;;;;;;;;2.67;2.67;;;;;21.27;53.27;101476.28;4913409;28;47217;-83
2022/07/11 02:13:13;;;;;;;;;2.00;2.00;;;;;21.20;54.07;101470.09;4931855;28;45446;-83
2022/07/11 02:15:40;;;;;;;;;3.00;3.00;;;;;21.22;53.37;101475.50;4930723;28;45474;-83
2022/07/11 02:18:05;;;;;;;;;2.00;2.00;;;;;21.21;52.63;101479.09;4914385;28;45373;-83
2022/07/11 02:20:32;;;;;;;;;3.00;3.00;;;;;21.19;53.86;101484.56;4931736;28;45703;-84
2022/07/11 02:23:00;;;;;;;;;3.00;3.00;;;;;21.18;53.37;101482.78;4915698;28;44904;-84
2022/07/11 02:25:27;;;;;;;;;4.00;4.00;;;;;21.10;52.96;101468.50;4933319;28;45540;-84
2022/07/11 02:27:53;;;;;;;;;3.00;3.00;;;;;21.10;52.87;101465.78;4932719;28;45452;-84
2022/07/11 02:30:18;;;;;;;;;3.00;3.00;;;;;21.12;52.92;101469.34;4931986;28;45458;-83
2022/07/11 02:32:44;;;;;;;;;4.00;4.00;;;;;21.12;53.53;101463.94;4932427;28;44843;-83
2022/07/11 02:35:09;;;;;;;;;1.67;1.67;;;;;21.10;53.23;101468.50;4930719;28;45365;-85
2022/07/11 02:37:35;;;;;;;;;3.00;3.00;;;;;21.11;53.09;101468.47;4932051;28;45283;-84
2022/07/11 02:40:00;;;;;;;;;3.00;3.00;;;;;21.07;52.98;101457.75;4931126;28;45419;-83
2022/07/11 02:42:26;;;;;;;;;4.00;4.00;;;;;21.04;53.39;101461.38;4914865;28;45438;-86
2022/07/11 02:44:52;;;;;;;;;3.33;3.33;;;;;21.01;54.51;101457.84;4913264;28;45510;-84
2022/07/11 02:47:17;;;;;;;;;2.67;2.00;;;;;21.06;53.67;101469.47;4913463;28;45491;-83
2022/07/11 02:49:44;;;;;;;;;3.67;3.67;;;;;21.06;54.08;101472.16;4914739;28;47904;-84
2022/07/11 02:52:10;;;;;;;;;2.67;2.67;;;;;21.01;54.42;101469.56;4915910;28;45452;-84
2022/07/11 02:54:36;;;;;;;;;4.00;2.00;;;;;21.03;54.11;101472.25;4914375;28;45373;-84
2022/07/11 02:57:40;;;;;;;;;4.33;3.00;;;;;21.01;54.08;101465.97;4928332;28;45485;-83
2022/07/11 03:00:09;;;;;;;;;3.00;3.00;;;;;21.00;54.24;101469.56;4912314;28;47265;-83
2022/07/11 03:02:35;;;;;;;;;4.00;3.00;;;;;20.94;54.04;101457.06;4911560;28;45366;-83
2022/07/11 03:05:00;;;;;;;;;3.33;3.33;;;;;20.95;53.97;101464.25;4930464;28;45329;-83
2022/07/11 03:07:26;;;;;;;;;4.00;3.00;;;;;20.88;54.59;101440.94;4912284;28;45410;-84
2022/07/11 03:09:53;;;;;;;;;4.00;4.00;;;;;20.92;54.34;101454.38;4928891;28;45410;-83
2022/07/11 03:12:19;;;;;;;;;3.00;3.00;;;;;20.87;53.88;101449.97;4911479;28;45418;-83
2022/07/11 03:14:44;;;;;;;;;3.33;2.00;;;;;20.88;54.42;101460.75;4913791;28;45408;-83
2022/07/11 03:17:09;;;;;;;;;4.00;4.00;;;;;20.76;54.84;101440.25;4933594;28;44890;-84
2022/07/11 03:19:36;;;;;;;;;3.00;3.00;;;;;20.82;54.50;101451.84;4934829;28;45428;-84
2022/07/11 03:22:42;;;;;;;;;2.00;2.00;;;;;20.84;54.67;101464.41;4916194;28;45459;-84
2022/07/11 03:25:08;;;;;;;;;3.33;3.33;;;;;20.81;54.63;101466.31;4931889;28;45472;-84
2022/07/11 03:27:34;;;;;;;;;3.00;3.00;;;;;20.83;54.94;101465.34;4915640;28;45054;-83
2022/07/11 03:29:59;;;;;;;;;5.00;3.33;;;;;20.80;54.88;101465.38;4916118;28;47397;-84
2022/07/11 03:32:28;;;;;;;;;3.00;3.00;;;;;20.74;54.65;101457.38;4913341;28;44829;-84
2022/07/11 03:37:37;;;;;;;;;5.00;4.00;;;;;20.76;54.80;101471.78;4912303;29;45402;-84
2022/07/11 03:40:03;;;;;;;;;3.00;3.00;;;;;20.75;55.64;101468.19;4910318;28;48053;-84
2022/07/11 03:42:29;;;;;;;;;3.00;3.00;;;;;20.73;55.51;101472.72;4929408;28;45756;-84
2022/07/11 03:44:54;;;;;;;;;3.00;3.00;;;;;20.71;55.43;101470.97;4929644;28;45362;-84
2022/07/11 03:47:20;;;;;;;;;4.33;4.33;;;;;20.53;55.62;101439.69;4929623;28;45546;-84
2022/07/11 03:49:47;;;;;;;;;3.33;3.33;;;;;20.69;55.79;101468.28;4944594;28;47031;-83
2022/07/11 03:52:16;;;;;;;;;4.00;4.00;;;;;20.66;55.19;101472.84;4942536;28;45532;-83
2022/07/11 03:54:42;;;;;;;;;4.67;3.67;;;;;20.60;55.97;101465.72;4942623;28;45443;-84
2022/07/11 03:57:08;;;;;;;;;5.00;5.00;;;;;20.65;55.57;101471.97;4926965;28;45504;-83
2022/07/11 03:59:33;;;;;;;;;5.33;4.00;;;;;20.61;55.49;101461.22;4929674;28;46356;-84
2022/07/11 04:02:00;;;;;;;;;4.67;4.67;;;;;20.64;56.76;101463.88;4928840;28;45397;-84
2022/07/11 04:04:26;;;;;;;;;4.00;4.00;;;;;20.53;55.89;101445.09;4928538;28;44956;-83
2022/07/11 04:06:51;;;;;;;;;5.00;4.00;;;;;20.46;56.29;101440.69;4945071;28;45370;-84
2022/07/11 04:09:17;;;;;;;;;5.00;4.67;;;;;20.61;56.24;101467.50;4929834;28;45452;-83
2022/07/11 04:11:42;;;;;;;;;3.00;3.00;;;;;20.48;56.96;101437.06;4928551;28;45541;-83
2022/07/11 04:14:08;;;;;;;;;4.00;4.00;;;;;20.64;55.92;101462.03;4941215;28;45369;-84
2022/07/11 04:16:35;;;;;;;;;5.33;5.33;;;;;20.62;55.90;101454.88;4927607;28;45426;-84
2022/07/11 04:19:04;;;;;;;;;6.00;5.00;;;;;20.65;56.09;101462.97;4943764;28;47042;-84
2022/07/11 04:21:29;;;;;;;;;4.00;4.00;;;;;20.67;55.91;101470.13;4929437;28;45468;-84
2022/07/11 04:23:58;;;;;;;;;4.50;4.00;;;;;20.57;55.54;101441.44;4927646;28;45610;-84
2022/07/11 04:26:23;;;;;;;;;6.00;5.33;;;;;20.68;55.83;101458.41;4928552;28;45354;-84
2022/07/11 04:28:49;;;;;;;;;4.00;4.00;;;;;20.68;56.29;101461.09;4909871;28;48098;-83
2022/07/11 04:31:30;;;;;;;;;5.00;5.00;;;;;20.79;55.31;101479.84;4942332;28;45476;-85
2022/07/11 04:33:56;;;;;;;;;5.00;4.33;;;;;20.74;55.66;101470.91;4926453;28;45483;-82
2022/07/11 04:36:22;;;;;;;;;4.00;4.00;;;;;20.92;55.27;101484.09;4924569;28;45528;-84
2022/07/11 04:38:49;;;;;;;;;7.67;7.67;;;;;21.01;55.68;101490.31;4927035;28;47898;-84
2022/07/11 04:41:15;;;;;;;;;5.33;5.33;;;;;21.02;56.11;101489.38;4928078;28;45385;-84
2022/07/11 04:43:42;;;;;;;;;7.00;7.00;;;;;20.95;55.07;101486.78;4928782;28;45443;-84
2022/07/11 04:46:08;;;;;;;;;7.33;7.33;;;;;20.94;54.93;101471.44;4929418;28;45493;-82
2022/07/11 04:48:33;;;;;;;;;6.33;6.33;;;;;20.97;55.41;101482.22;4943220;28;47167;-84
2022/07/11 04:50:59;;;;;;;;;7.33;6.00;;;;;20.90;55.80;101480.53;4928205;28;45632;-84
2022/07/11 04:53:24;;;;;;;;;7.00;7.00;;;;;20.78;56.24;101465.44;4929812;28;45334;-84
2022/07/11 04:56:40;;;;;;;;;6.33;5.33;;;;;20.96;55.51;101490.38;4929220;28;45502;-84
2022/07/11 04:59:05;;;;;;;;;5.67;5.67;;;;;21.11;55.33;101478.41;4928007;28;46303;-84
2022/07/11 05:01:31;;;;;;;;;5.00;5.00;;;;;21.30;55.26;101479.84;4927999;28;45503;-84
2022/07/11 05:03:56;;;;;;;;;7.00;5.00;;;;;21.41;54.48;101490.47;4931610;28;45737;-84
2022/07/11 05:06:22;;;;;;;;;6.00;6.00;;;;;21.44;54.37;101485.03;4930636;28;45471;-84
2022/07/11 05:08:48;;;;;;;;;9.00;8.00;;;;;21.58;54.30;101499.19;4931766;28;45621;-83
2022/07/11 05:11:13;;;;;;;;;7.33;6.67;;;;;21.60;54.09;101484.75;4931321;28;44850;-83
2022/07/11 05:13:39;;;;;;;;;7.00;7.00;;;;;21.65;53.68;101490.94;4931897;28;45531;-85
2022/07/11 05:16:05;;;;;;;;;4.00;4.00;;;;;21.81;53.34;101496.94;4929340;28;45829;-84
2022/07/11 05:18:31;;;;;;;;;5.00;4.67;;;;;21.85;53.04;101486.00;4929807;28;46953;-84
2022/07/11 05:20:57;;;;;;;;;5.00;5.00;;;;;22.01;53.39;101504.66;4932539;28;45509;-83
2022/07/11 05:23:25;;;;;;;;;6.33;5.00;;;;;22.11;52.55;101509.81;4948003;28;45363;-84
2022/07/11 05:25:51;;;;;;;;;6.00;6.00;;;;;22.17;52.13;101508.81;4933550;28;45414;-84
2022/07/11 05:28:16;;;;;;;;;5.00;5.00;;;;;22.26;52.12;101502.31;4932301;28;46733;-83
2022/07/11 05:30:42;;;;;;;;;6.00;6.00;;;;;22.32;51.84;101502.22;4933890;28;45596;-83
2022/07/11 05:33:07;;;;;;;;;4.67;4.00;;;;;22.39;51.40;101509.25;4932513;28;45490;-84
2022/07/11 05:35:32;;;;;;;;;5.33;5.33;;;;;22.48;51.72;101506.34;4929460;28;45627;-83
2022/07/11 05:37:58;;;;;;;;;5.00;5.00;;;;;22.50;51.49;101503.56;4932133;28;46556;-83
2022/07/11 05:40:24;;;;;;;;;6.00;5.00;;;;;22.59;51.77;101513.34;4932844;28;44809;-84
2022/07/11 05:42:50;;;;;;;;;6.00;5.00;;;;;22.51;51.14;101492.69;4918506;28;44821;-84
2022/07/11 05:45:16;;;;;;;;;3.00;3.00;;;;;22.61;51.24;101509.66;4931810;28;45351;-85
2022/07/11 05:47:43;;;;;;;;;6.00;6.00;;;;;22.74;51.07;101513.88;4933025;28;45739;-84
2022/07/11 05:50:08;;;;;;;;;5.67;5.67;;;;;22.78;51.05;101506.50;4933525;28;45358;-85
2022/07/11 05:52:36;;;;;;;;;4.67;4.67;;;;;22.82;50.80;101500.09;4931396;28;45474;-84
2022/07/11 05:55:01;;;;;;;;;5.33;5.00;;;;;22.86;50.76;101503.63;4931514;28;45452;-85
2022/07/11 05:57:27;;;;;;;;;6.00;5.33;;;;;22.89;50.37;101509.00;4932645;28;47962;-82
2022/07/11 05:59:53;;;;;;;;;7.67;6.00;;;;;22.90;50.33;101503.50;4931739;28;45383;-83
2022/07/11 06:02:25;;;;;;;;;6.00;6.00;;;;;23.00;50.48;101504.16;4948024;28;45543;-85
2022/07/11 06:04:50;;;;;;;;;6.33;5.67;;;;;23.12;49.88;101494.84;4948058;28;45476;-86
2022/07/11 06:08:40;;;;;;;;;5.00;5.00;;;;;22.99;50.31;101469.84;4931643;28;46751;-86
2022/07/11 06:10:02;;;;;;;;;6.33;6.33;;;;;23.29;49.68;101503.44;4931845;28;45441;-85
2022/07/11 06:12:27;;;;;;;;;8.00;6.33;;;;;23.33;49.13;101505.16;4947161;28;45458;-86
2022/07/11 06:14:54;;;;;;;;;6.67;6.33;;;;;23.35;49.46;101514.16;4930947;28;45418;-86
2022/07/11 06:17:20;;;;;;;;;6.67;5.00;;;;;23.25;49.12;101473.69;4931478;28;47153;-86
2022/07/11 06:19:45;;;;;;;;;7.00;5.00;;;;;23.50;49.24;101512.81;4916071;28;45413;-85
2022/07/11 06:22:11;;;;;;;;;8.00;6.67;;;;;23.44;48.96;101490.41;4935365;28;45626;-85
2022/07/11 06:24:38;;;;;;;;;7.00;5.00;;;;;23.63;49.07;101518.81;4949136;28;45406;-86
2022/07/11 06:27:14;;;;;;;;;5.00;5.00;;;;;23.73;48.97;101508.56;4933785;28;46663;-85
2022/07/11 06:29:47;;;;;;;;;6.33;6.33;;;;;23.90;48.48;101511.75;4935286;28;45171;-85
2022/07/11 06:32:13;;;;;;;;;7.33;7.33;;;;;23.95;47.56;101509.75;4935127;28;45405;-86
2022/07/11 06:34:52;;;;;;;;;5.67;5.67;;;;;23.94;47.84;101501.69;4934585;28;45578;-87
2022/07/11 06:37:19;;;;;;;;;6.67;6.67;;;;;24.03;48.16;101512.25;4932960;28;46986;-86
2022/07/11 06:39:44;;;;;;;;;7.00;6.00;;;;;24.05;47.58;101504.94;4919047;28;45070;-85
2022/07/11 06:42:10;;;;;;;;;6.00;6.00;;;;;24.09;47.53;101512.06;4918315;28;45418;-86
2022/07/11 06:44:36;;;;;;;;;5.00;5.00;;;;;24.14;47.13;101509.25;4934049;28;45416;-86
2022/07/11 06:47:12;;;;;;;;;5.00;5.00;;;;;24.14;47.17;101501.97;4918196;28;46714;-85
2022/07/11 06:49:38;;;;;;;;;6.00;6.00;;;;;24.15;47.65;101506.44;4918918;28;45643;-86
2022/07/11 06:52:08;;;;;;;;;7.00;6.33;;;;;24.33;46.80;101504.13;4918767;28;45261;-86
2022/07/11 06:54:35;;;;;;;;;6.33;6.00;;;;;24.36;47.19;101487.72;4935449;28;45470;-85
2022/07/11 06:57:00;;;;;;;;;5.00;5.00;;;;;24.39;46.58;101498.47;4917943;28;47583;-85
2022/07/11 06:59:26;;;;;;;;;5.67;5.67;;;;;24.44;47.01;101503.78;4932742;28;45453;-85
2022/07/11 07:01:57;;;;;;;;;6.00;6.00;;;;;24.46;46.93;101483.78;4916518;28;45318;-85
2022/07/11 07:04:45;;;;;;;;;8.33;6.00;;;;;24.64;46.38;101514.97;4934158;28;45465;-85
2022/07/11 07:07:14;;;;;;;;;5.33;5.33;;;;;24.68;46.41;101503.03;4920024;28;47953;-85
2022/07/11 07:10:10;;;;;;;;;5.00;5.00;;;;;24.72;45.67;101511.97;4940258;28;44707;-86
2022/07/11 07:13:08;;;;;;;;;7.00;6.33;;;;;24.65;45.83;101497.69;4917317;28;45417;-86
2022/07/11 07:15:36;;;;;;;;;5.00;5.00;;;;;24.52;45.99;101466.38;4887048;28;45465;-86
2022/07/11 07:18:17;;;;;;;;;5.67;5.00;;;;;24.76;45.92;101502.75;4935062;28;45299;-87
2022/07/11 07:20:54;;;;;;;;;6.00;6.00;;;;;24.72;45.72;101473.88;4933828;28;45499;-85
2022/07/11 07:23:23;;;;;;;;;5.00;5.00;;;;;25.01;45.53;101485.63;4918230;28;45474;-86
2022/07/11 07:26:16;;;;;;;;;4.00;4.00;;;;;25.12;44.88;101478.84;4933868;28;45385;-86
2022/07/11 07:29:05;;;;;;;;;3.67;3.67;;;;;25.38;44.52;101514.31;4918404;28;46837;-86
2022/07/11 07:31:45;;;;;;;;;5.33;5.33;;;;;25.07;44.27;101471.81;4934764;28;45488;-86
2022/07/11 07:34:15;;;;;;;;;6.67;6.67;;;;;25.25;44.02;101489.34;4934639;28;44745;-86
2022/07/11 07:36:40;;;;;;;;;4.00;4.00;;;;;25.16;44.15;101475.06;4945863;28;45940;-86
2022/07/11 07:39:06;;;;;;;;;5.00;5.00;;;;;25.44;43.52;101508.66;4935279;28;45398;-85
2022/07/11 07:41:33;;;;;;;;;6.33;4.33;;;;;25.44;43.37;101519.56;4934872;28;45447;-85
2022/07/11 07:43:59;;;;;;;;;4.33;4.33;;;;;25.46;43.87;101521.25;4937008;28;45279;-86
2022/07/11 07:46:29;;;;;;;;;4.67;4.67;;;;;25.53;43.32;101522.84;4935659;28;45546;-87
2022/07/11 07:48:55;;;;;;;;;3.67;3.67;;;;;25.22;43.30;101471.28;4937485;28;45255;-86
2022/07/11 07:51:29;;;;;;;;;4.00;4.00;;;;;25.49;43.27;101513.00;4936636;28;45206;-84
2022/07/11 07:53:56;;;;;;;;;5.00;5.00;;;;;25.40;43.53;101488.81;4936105;28;44725;-86
2022/07/11 08:01:50;;;;;;;;;3.33;3.33;;;;;25.34;43.44;101473.56;5025283;23;45839;-85
2022/07/11 08:04:29;;;;;;;;;4.00;4.00;;;;;25.63;43.48;101489.78;4919983;28;45490;-86
2022/07/11 08:06:59;;;;;;;;;5.00;5.00;;;;;25.90;43.28;101507.00;4939312;28;45312;-85
2022/07/11 08:09:43;;;;;;;;;3.00;3.00;;;;;25.98;42.32;101518.50;4936644;28;45299;-84
2022/07/11 08:12:15;;;;;;;;;4.00;4.00;;;;;25.97;42.39;101513.97;4951206;28;44736;-86
2022/07/11 08:25:58;;;;;;;;;4.33;4.33;;;;;25.90;41.94;101457.94;5224353;23;46413;-87
2022/07/11 08:32:56;;;;;;;;;;;;;;;;;;;;;
2022/07/11 08:39:48;;;;;;;;;;;;;;;;;;;;;
2022/07/11 08:59:06;;;;;;;;;1.33;1.33;;;;;26.60;40.42;101473.38;5411001;23;45913;-84
2022/07/11 09:01:55;;;;;;;;;2.33;2.33;;;;;26.59;40.74;101474.31;4936248;28;44831;-86
2022/07/11 09:04:46;;;;;;;;;4.00;4.00;;;;;26.45;40.23;101425.72;4876313;29;44893;-86
2022/07/11 09:34:29;;;;;;;;;;;;;;;;;;;;;
2022/07/11 09:49:38;;;;;;;;;3.67;3.67;;;;;26.41;41.31;101445.03;4857186;29;45553;-84
2022/07/11 09:52:22;;;;;;;;;2.33;2.33;;;;;26.24;41.37;101404.78;4823825;29;44902;-84
2022/07/11 09:58:33;;;;;;;;;3.00;3.00;;;;;26.59;41.01;101432.50;4779597;29;46038;-84
2022/07/11 10:08:12;;;;;;;;;4.00;4.00;;;;;26.40;41.37;101405.97;4784958;29;45456;-83
2022/07/11 10:14:27;;;;;;;;;;;;;;;;;;;;;
2022/07/11 10:17:29;;;;;;;;;3.00;3.00;;;;;26.48;40.38;101419.25;4761599;29;64998;-83
2022/07/11 10:20:29;;;;;;;;;3.00;3.00;;;;;26.35;41.07;101397.06;4751454;29;45566;-83
2022/07/11 10:23:26;;;;;;;;;2.33;2.33;;;;;26.43;40.96;101404.94;4699282;29;44915;-83
2022/07/11 10:31:36;;;;;;;;;2.67;2.67;;;;;26.63;40.48;101407.75;4929924;28;47226;-84
2022/07/11 10:34:39;;;;;;;;;2.00;2.00;;;;;26.70;40.37;101397.44;4934469;28;45563;-84
2022/07/11 10:37:21;;;;;;;;;3.67;3.00;;;;;26.87;40.08;101411.25;4929474;28;45441;-83
2022/07/11 10:40:53;;;;;;;;;;;;;;;;;;;;;
2022/07/11 10:43:32;;;;;;;;;1.67;1.67;;;;;27.21;39.26;101463.47;4910000;28;74356;-83
2022/07/11 10:46:31;;;;;;;;;5.33;3.67;;;;;27.08;40.04;101446.75;4898528;28;45356;-85
2022/07/11 10:49:40;;;;;;;;;2.33;2.33;;;;;27.14;39.95;101460.16;4913900;29;45388;-83
2022/07/11 10:52:14;;;;;;;;;4.00;2.67;;;;;27.02;39.89;101436.09;4898480;29;44923;-82
2022/07/11 10:55:10;;;;;;;;;2.67;2.00;;;;;27.15;39.51;101448.28;4915617;29;47198;-85
2022/07/11 10:58:40;;;;;;;;;2.00;2.00;;;;;27.01;39.61;101407.06;4913394;28;44797;-84
2022/07/11 11:01:15;;;;;;;;;1.00;1.00;;;;;27.38;38.58;101449.13;4913849;28;45334;-84
2022/07/11 11:12:07;;;;;;;;;2.00;2.00;;;;;27.51;39.19;101415.72;3963554;23;45299;-84
2022/07/11 11:18:34;;;;;;;;;1.67;1.67;;;;;27.52;38.40;101422.94;4839554;29;45854;-84
2022/07/11 11:24:40;;;;;;;;;1.00;1.00;;;;;27.11;38.30;101371.06;4832907;29;45510;-84
2022/07/11 11:27:15;;;;;;;;;2.00;2.00;;;;;27.25;38.65;101397.78;4823775;29;45440;-84
2022/07/11 11:30:13;;;;;;;;;1.33;1.33;;;;;27.38;39.43;101399.97;4821354;29;46782;-85
2022/07/11 11:32:57;;;;;;;;;2.33;1.67;;;;;27.36;38.53;101371.84;4751794;29;45473;-84
2022/07/11 11:35:32;;;;;;;;;2.00;2.00;;;;;27.53;38.31;101394.69;4783682;29;45420;-85
2022/07/11 11:38:11;;;;;;;;;3.00;3.00;;;;;27.45;37.71;101376.84;4759803;29;44935;-84
2022/07/11 11:41:04;;;;;;;;;4.00;3.33;;;;;27.53;38.26;101382.84;4774720;29;46436;-84
2022/07/11 11:43:37;;;;;;;;;1.33;1.33;;;;;27.54;37.97;101365.50;4790280;29;45465;-83
2022/07/11 11:46:13;;;;;;;;;2.00;2.00;;;;;27.77;37.58;101401.78;4801500;29;45395;-82
2022/07/11 11:49:02;;;;;;;;;1.33;1.33;;;;;27.74;37.67;101387.31;4801368;29;45805;-83
2022/07/11 12:01:56;;;;;;;;;3.33;2.33;;;;;27.80;37.79;101393.44;4801956;29;45440;-85
2022/07/11 12:04:48;;;;;;;;;;;;;;;;;;;;;
2022/07/11 12:07:21;;;;;;;;;3.33;2.33;;;;;27.71;37.25;101348.28;4764685;29;72930;-84
2022/07/11 12:09:59;;;;;;;;;3.33;3.33;;;;;27.84;37.09;101370.47;5068287;23;45530;-83
2022/07/11 12:13:03;;;;;;;;;4.00;4.00;;;;;28.00;37.01;101387.94;5139102;23;46119;-83
2022/07/11 12:16:39;;;;;;;;;1.50;1.50;;;;;27.73;36.27;101347.28;4928115;28;45583;-83
2022/07/11 12:30:04;;;;;;;;;1.33;1.33;;;;;28.26;36.75;101383.91;4845335;29;44989;-85
2022/07/11 12:33:05;;;;;;;;;2.00;2.00;;;;;28.28;36.20;101394.78;4851297;29;45523;-84
2022/07/11 12:35:34;;;;;;;;;0.25;0.25;;;;;28.09;36.79;101365.59;4848443;29;45576;-83
2022/07/11 12:41:36;;;;;;;;;1.00;1.00;;;;;28.08;36.40;101369.31;4848444;29;45448;-85
2022/07/11 12:47:04;;;;;;;;;2.00;2.00;;;;;28.08;36.72;101369.31;4854707;29;45962;-85
2022/07/11 12:49:34;;;;;;;;;1.00;1.00;;;;;28.08;37.10;101363.84;4853670;29;46944;-84
2022/07/11 12:55:50;;;;;;;;;1.33;1.33;;;;;28.26;36.30;101355.69;4857636;29;45631;-84
2022/07/11 12:58:21;;;;;;;;;3.00;1.00;;;;;28.19;36.37;101343.28;4846149;29;44979;-83
2022/07/11 13:01:02;;;;;;;;;1.67;1.67;;;;;28.04;36.34;101318.47;4854099;29;45480;-83
2022/07/11 13:20:03;;;;;;;;;2.00;1.67;;;;;28.31;36.22;101342.66;2925916;23;45483;-84
2022/07/11 13:22:33;;;;;;;;;1.33;0.67;;;;;28.21;36.15;101319.47;4951535;28;45575;-85
2022/07/11 13:28:07;;;;;;;;;2.00;2.00;;;;;28.44;36.04;101349.28;5029101;23;46874;-83
2022/07/11 13:30:40;;;;;;;;;1.00;1.00;;;;;28.47;34.97;101353.69;4899334;28;44826;-83
2022/07/11 13:33:07;;;;;;;;;2.33;2.33;;;;;28.24;34.69;101316.59;4909690;28;46613;-84
2022/07/11 13:39:00;;;;;;;;;2.33;2.33;;;;;28.52;35.84;101344.31;4884734;28;44854;-84
2022/07/11 13:41:59;;;;;;;;;3.00;3.00;;;;;28.42;35.89;101301.06;4901290;28;44866;-82
2022/07/11 13:48:41;;;;;;;;;1.00;1.00;;;;;28.99;34.92;101339.19;4915778;28;44910;-83
2022/07/11 13:51:30;;;;;;;;;3.00;3.00;;;;;30.01;33.17;101335.31;4790786;29;45595;-82
2022/07/11 13:56:47;;;;;;;;;;;;;;;;;;;;;
2022/07/11 13:59:36;;;;;;;;;2.00;2.00;;;;;35.23;26.25;101319.59;4934642;28;72016;-82
2022/07/11 14:02:26;;;;;;;;;2.00;2.00;;;;;36.50;24.90;101286.91;4931956;28;45496;-83
2022/07/11 14:05:02;;;;;;;;;1.00;1.00;;;;;37.74;25.53;101291.59;4918128;28;45584;-84
2022/07/11 14:08:06;;;;;;;;;;;;;;;;;;;;;
2022/07/11 14:10:36;;;;;;;;;2.00;2.00;;;;;39.03;23.15;101284.03;4935276;28;74384;-83
2022/07/11 14:13:02;;;;;;;;;3.33;3.33;;;;;39.58;21.59;101298.94;4903355;28;45473;-84
2022/07/11 14:16:02;;;;;;;;;4.00;4.00;;;;;40.36;20.06;101305.91;4914825;28;45526;-83
2022/07/11 14:19:05;;;;;;;;;;;;;;;;;;;;;
2022/07/11 14:21:30;;;;;;;;;2.00;2.00;;;;;42.08;20.71;101284.69;4911129;28;45608;-83
2022/07/11 14:23:58;;;;;;;;;4.00;3.00;;;;;43.06;19.45;101306.22;4918869;28;44825;-83
2022/07/11 14:29:43;;;;;;;;;3.00;3.00;;;;;43.20;17.15;101281.34;4950452;28;45532;-84
2022/07/11 14:32:29;;;;;;;;;4.00;3.00;;;;;43.53;16.68;101287.69;4920789;28;45414;-84
2022/07/11 14:38:21;;;;;;;;;2.67;2.67;;;;;43.58;15.51;101282.44;4936046;28;44957;-85
2022/07/11 14:41:44;;;;;;;;;;;;;;;;;;;;;
2022/07/11 14:44:57;;;;;;;;;2.00;2.00;;;;;43.21;16.65;101261.56;4858470;29;72364;-84
2022/07/11 15:06:15;;;;;;;;;;;;;;;;;;;;;
2022/07/11 15:14:29;;;;;;;;;2.00;2.00;;;;;47.04;13.46;101264.16;4903416;28;46802;-84
2022/07/11 15:16:57;;;;;;;;;2.67;2.00;;;;;47.33;13.20;101256.59;4895251;28;47340;-85
2022/07/11 15:19:29;;;;;;;;;2.33;2.33;;;;;47.80;13.30;101291.47;4905743;29;45083;-85
2022/07/11 15:22:04;;;;;;;;;3.33;3.33;;;;;48.73;11.91;101256.09;4896077;29;45597;-85
2022/07/11 15:25:07;;;;;;;;;2.00;2.00;;;;;48.96;11.91;101256.47;4898401;29;45544;-86
2022/07/11 15:28:07;;;;;;;;;1.67;1.67;;;;;49.95;12.34;101281.81;4896468;29;47291;-85
2022/07/11 15:30:34;;;;;;;;;2.00;2.00;;;;;50.31;11.04;101280.28;4893108;29;45462;-86
2022/07/11 15:33:20;;;;;;;;;0.00;0.00;;;;;50.11;10.80;101260.63;4875644;29;45396;-86
2022/07/11 15:35:55;;;;;;;;;2.33;2.33;;;;;50.49;10.98;101254.91;4896232;29;44944;-86
2022/07/11 15:38:25;;;;;;;;;15.67;15.00;;;;;50.56;11.39;101263.34;4892990;29;47040;-85